sensor_id;sensor_type;location;lat;lon;timestamp;temperature;humidity
21387;DHT22;10854;45.922;6.716;2023-06-14T00:00:08;15.60;99.90
21387;DHT22;10854;45.922;6.716;2023-06-14T00:02:39;15.60;99.90
21387;DHT22;10854;45.922;6.716;2023-06-14T00:05:08;15.60;99.90
21387;DHT22;10854;45.922;6.716;2023-06-14T00:07:41;15.60;99.90
21387;DHT22;10854;45.922;6.716;2023-06-14T00:10:16;15.50;99.90
21387;DHT22;10854;45.922;6.716;2023-06-14T00:12:46;15.50;99.90
21387;DHT22;10854;45.922;6.716;2023-06-14T00:15:15;15.50;99.90
21387;DHT22;10854;45.922;6.716;2023-06-14T00:17:44;15.50;99.90
21387;DHT22;10854;45.922;6.716;2023-06-14T00:20:15;15.40;99.90
21387;DHT22;10854;45.922;6.716;2023-06-14T00:22:45;15.40;99.90
21387;DHT22;10854;45.922;6.716;2023-06-14T00:25:14;15.30;99.90
21387;DHT22;10854;45.922;6.716;2023-06-14T00:27:51;15.30;99.90
21387;DHT22;10854;45.922;6.716;2023-06-14T00:30:21;15.20;99.90
21387;DHT22;10854;45.922;6.716;2023-06-14T00:32:50;15.20;99.90
21387;DHT22;10854;45.922;6.716;2023-06-14T00:35:20;15.20;99.90
21387;DHT22;10854;45.922;6.716;2023-06-14T00:37:49;15.20;99.90
21387;DHT22;10854;45.922;6.716;2023-06-14T00:40:18;15.10;99.90
21387;DHT22;10854;45.922;6.716;2023-06-14T00:42:47;15.10;99.90
21387;DHT22;10854;45.922;6.716;2023-06-14T00:45:16;15.00;99.90
21387;DHT22;10854;45.922;6.716;2023-06-14T00:47:46;15.00;99.90
21387;DHT22;10854;45.922;6.716;2023-06-14T00:50:16;15.00;99.90
21387;DHT22;10854;45.922;6.716;2023-06-14T00:52:45;15.00;99.90
21387;DHT22;10854;45.922;6.716;2023-06-14T00:55:14;15.00;99.90
21387;DHT22;10854;45.922;6.716;2023-06-14T00:57:44;14.90;99.90
21387;DHT22;10854;45.922;6.716;2023-06-14T01:00:14;14.90;99.90
21387;DHT22;10854;45.922;6.716;2023-06-14T01:02:43;14.90;99.90
21387;DHT22;10854;45.922;6.716;2023-06-14T01:05:14;14.90;99.90
21387;DHT22;10854;45.922;6.716;2023-06-14T01:13:19;14.90;99.90
21387;DHT22;10854;45.922;6.716;2023-06-14T01:15:50;14.80;99.90
21387;DHT22;10854;45.922;6.716;2023-06-14T01:18:20;14.80;99.90
21387;DHT22;10854;45.922;6.716;2023-06-14T01:20:49;14.80;99.90
21387;DHT22;10854;45.922;6.716;2023-06-14T01:23:22;14.80;99.90
21387;DHT22;10854;45.922;6.716;2023-06-14T01:25:51;14.80;99.90
21387;DHT22;10854;45.922;6.716;2023-06-14T01:28:24;14.80;99.90
21387;DHT22;10854;45.922;6.716;2023-06-14T01:30:55;14.80;99.90
21387;DHT22;10854;45.922;6.716;2023-06-14T01:33:26;14.80;99.90
21387;DHT22;10854;45.922;6.716;2023-06-14T01:35:56;14.90;99.90
21387;DHT22;10854;45.922;6.716;2023-06-14T01:38:27;14.90;99.90
21387;DHT22;10854;45.922;6.716;2023-06-14T01:41:00;14.90;99.90
21387;DHT22;10854;45.922;6.716;2023-06-14T01:43:31;14.90;99.90
21387;DHT22;10854;45.922;6.716;2023-06-14T01:46:00;14.90;99.90
21387;DHT22;10854;45.922;6.716;2023-06-14T01:48:30;14.90;99.90
21387;DHT22;10854;45.922;6.716;2023-06-14T01:51:00;14.90;99.90
21387;DHT22;10854;45.922;6.716;2023-06-14T01:53:29;14.90;99.90
21387;DHT22;10854;45.922;6.716;2023-06-14T01:55:58;14.90;99.90
21387;DHT22;10854;45.922;6.716;2023-06-14T01:58:28;15.00;99.90
21387;DHT22;10854;45.922;6.716;2023-06-14T02:00:57;15.10;99.90
21387;DHT22;10854;45.922;6.716;2023-06-14T02:03:26;15.10;99.90
21387;DHT22;10854;45.922;6.716;2023-06-14T02:05:55;15.10;99.90
21387;DHT22;10854;45.922;6.716;2023-06-14T02:08:25;15.20;99.90
21387;DHT22;10854;45.922;6.716;2023-06-14T02:10:53;15.20;99.90
21387;DHT22;10854;45.922;6.716;2023-06-14T02:13:22;15.10;99.90
21387;DHT22;10854;45.922;6.716;2023-06-14T02:15:51;15.10;99.90
21387;DHT22;10854;45.922;6.716;2023-06-14T02:18:23;15.20;99.90
21387;DHT22;10854;45.922;6.716;2023-06-14T02:20:52;15.20;99.90
21387;DHT22;10854;45.922;6.716;2023-06-14T02:23:21;15.20;99.90
21387;DHT22;10854;45.922;6.716;2023-06-14T02:25:50;15.20;99.90
21387;DHT22;10854;45.922;6.716;2023-06-14T02:28:19;15.20;99.90
21387;DHT22;10854;45.922;6.716;2023-06-14T02:30:49;15.20;99.90
21387;DHT22;10854;45.922;6.716;2023-06-14T02:33:18;15.20;99.90
21387;DHT22;10854;45.922;6.716;2023-06-14T02:35:47;15.20;99.90
21387;DHT22;10854;45.922;6.716;2023-06-14T02:38:16;15.20;99.90
21387;DHT22;10854;45.922;6.716;2023-06-14T02:40:45;15.20;99.90
21387;DHT22;10854;45.922;6.716;2023-06-14T02:43:15;15.20;99.90
21387;DHT22;10854;45.922;6.716;2023-06-14T02:45:46;15.20;99.90
21387;DHT22;10854;45.922;6.716;2023-06-14T02:48:15;15.20;99.90
21387;DHT22;10854;45.922;6.716;2023-06-14T02:50:44;15.10;99.90
21387;DHT22;10854;45.922;6.716;2023-06-14T02:53:13;15.10;99.90
21387;DHT22;10854;45.922;6.716;2023-06-14T02:55:42;15.10;99.90
21387;DHT22;10854;45.922;6.716;2023-06-14T02:58:11;15.10;99.90
21387;DHT22;10854;45.922;6.716;2023-06-14T03:00:40;15.10;99.90
21387;DHT22;10854;45.922;6.716;2023-06-14T03:03:09;15.10;99.90
21387;DHT22;10854;45.922;6.716;2023-06-14T03:05:45;15.10;99.90
21387;DHT22;10854;45.922;6.716;2023-06-14T03:08:18;15.00;99.90
21387;DHT22;10854;45.922;6.716;2023-06-14T03:10:49;15.00;99.90
21387;DHT22;10854;45.922;6.716;2023-06-14T03:13:19;15.00;99.90
21387;DHT22;10854;45.922;6.716;2023-06-14T03:15:51;15.00;99.90
21387;DHT22;10854;45.922;6.716;2023-06-14T03:18:20;15.00;99.90
21387;DHT22;10854;45.922;6.716;2023-06-14T03:20:52;14.90;99.90
21387;DHT22;10854;45.922;6.716;2023-06-14T03:23:23;14.90;99.90
21387;DHT22;10854;45.922;6.716;2023-06-14T03:25:52;15.00;99.90
21387;DHT22;10854;45.922;6.716;2023-06-14T03:28:22;15.00;99.90
21387;DHT22;10854;45.922;6.716;2023-06-14T03:30:51;15.00;99.90
21387;DHT22;10854;45.922;6.716;2023-06-14T03:33:20;15.00;99.90
21387;DHT22;10854;45.922;6.716;2023-06-14T03:35:49;15.00;99.90
21387;DHT22;10854;45.922;6.716;2023-06-14T03:38:18;15.00;99.90
21387;DHT22;10854;45.922;6.716;2023-06-14T03:40:47;15.10;99.90
21387;DHT22;10854;45.922;6.716;2023-06-14T03:43:16;15.00;99.90
21387;DHT22;10854;45.922;6.716;2023-06-14T03:45:45;15.10;99.90
21387;DHT22;10854;45.922;6.716;2023-06-14T03:48:14;15.20;99.90
21387;DHT22;10854;45.922;6.716;2023-06-14T03:50:43;15.20;99.90
21387;DHT22;10854;45.922;6.716;2023-06-14T03:53:13;15.20;99.90
21387;DHT22;10854;45.922;6.716;2023-06-14T03:55:42;15.30;99.90
21387;DHT22;10854;45.922;6.716;2023-06-14T03:58:14;15.30;99.90
21387;DHT22;10854;45.922;6.716;2023-06-14T04:00:43;15.40;99.90
21387;DHT22;10854;45.922;6.716;2023-06-14T04:03:14;15.30;99.90
21387;DHT22;10854;45.922;6.716;2023-06-14T04:05:43;15.30;99.90
21387;DHT22;10854;45.922;6.716;2023-06-14T04:08:12;15.30;99.90
21387;DHT22;10854;45.922;6.716;2023-06-14T04:10:43;15.30;99.90
21387;DHT22;10854;45.922;6.716;2023-06-14T04:13:13;15.30;99.90
21387;DHT22;10854;45.922;6.716;2023-06-14T04:15:42;15.30;99.90
21387;DHT22;10854;45.922;6.716;2023-06-14T04:18:12;15.20;99.90
21387;DHT22;10854;45.922;6.716;2023-06-14T04:20:41;15.20;99.90
21387;DHT22;10854;45.922;6.716;2023-06-14T04:23:17;15.20;99.90
21387;DHT22;10854;45.922;6.716;2023-06-14T04:25:47;15.30;99.90
21387;DHT22;10854;45.922;6.716;2023-06-14T04:28:17;15.30;99.90
21387;DHT22;10854;45.922;6.716;2023-06-14T04:30:46;15.30;99.90
21387;DHT22;10854;45.922;6.716;2023-06-14T04:33:17;15.30;99.90
21387;DHT22;10854;45.922;6.716;2023-06-14T04:35:47;15.30;99.90
21387;DHT22;10854;45.922;6.716;2023-06-14T04:38:17;15.40;99.90
21387;DHT22;10854;45.922;6.716;2023-06-14T04:40:47;15.40;99.90
21387;DHT22;10854;45.922;6.716;2023-06-14T04:43:16;15.50;99.90
21387;DHT22;10854;45.922;6.716;2023-06-14T04:45:46;15.50;99.90
21387;DHT22;10854;45.922;6.716;2023-06-14T04:48:15;15.60;99.90
21387;DHT22;10854;45.922;6.716;2023-06-14T04:50:49;15.60;99.90
21387;DHT22;10854;45.922;6.716;2023-06-14T04:53:21;15.60;99.90
21387;DHT22;10854;45.922;6.716;2023-06-14T04:55:51;15.70;99.90
21387;DHT22;10854;45.922;6.716;2023-06-14T04:58:21;15.70;99.90
21387;DHT22;10854;45.922;6.716;2023-06-14T05:00:50;15.80;99.90
21387;DHT22;10854;45.922;6.716;2023-06-14T05:03:19;15.80;99.90
21387;DHT22;10854;45.922;6.716;2023-06-14T05:05:50;15.80;99.90
21387;DHT22;10854;45.922;6.716;2023-06-14T05:08:21;15.90;99.90
21387;DHT22;10854;45.922;6.716;2023-06-14T05:10:54;15.90;99.90
21387;DHT22;10854;45.922;6.716;2023-06-14T05:13:23;16.00;99.90
21387;DHT22;10854;45.922;6.716;2023-06-14T05:15:52;16.30;99.90
21387;DHT22;10854;45.922;6.716;2023-06-14T05:18:21;16.80;99.90
21387;DHT22;10854;45.922;6.716;2023-06-14T05:20:50;17.20;99.90
21387;DHT22;10854;45.922;6.716;2023-06-14T05:23:19;17.70;99.90
21387;DHT22;10854;45.922;6.716;2023-06-14T05:25:49;18.20;99.90
21387;DHT22;10854;45.922;6.716;2023-06-14T05:28:18;18.70;99.90
21387;DHT22;10854;45.922;6.716;2023-06-14T05:30:48;19.20;99.90
21387;DHT22;10854;45.922;6.716;2023-06-14T05:33:17;19.50;99.90
21387;DHT22;10854;45.922;6.716;2023-06-14T05:35:46;19.80;99.90
21387;DHT22;10854;45.922;6.716;2023-06-14T05:38:15;20.10;99.90
21387;DHT22;10854;45.922;6.716;2023-06-14T05:40:44;20.30;99.90
21387;DHT22;10854;45.922;6.716;2023-06-14T05:43:13;20.50;99.90
21387;DHT22;10854;45.922;6.716;2023-06-14T05:45:42;20.70;99.90
21387;DHT22;10854;45.922;6.716;2023-06-14T05:48:11;20.90;99.90
21387;DHT22;10854;45.922;6.716;2023-06-14T05:50:40;21.20;99.90
21387;DHT22;10854;45.922;6.716;2023-06-14T05:53:09;21.40;99.90
21387;DHT22;10854;45.922;6.716;2023-06-14T05:55:39;21.60;98.70
21387;DHT22;10854;45.922;6.716;2023-06-14T05:58:08;21.80;97.00
21387;DHT22;10854;45.922;6.716;2023-06-14T06:00:39;21.90;96.00
21387;DHT22;10854;45.922;6.716;2023-06-14T06:03:08;21.90;95.50
21387;DHT22;10854;45.922;6.716;2023-06-14T06:05:37;22.10;95.10
21387;DHT22;10854;45.922;6.716;2023-06-14T06:08:06;22.40;94.40
21387;DHT22;10854;45.922;6.716;2023-06-14T06:10:35;22.70;92.90
21387;DHT22;10854;45.922;6.716;2023-06-14T06:13:04;22.90;91.80
21387;DHT22;10854;45.922;6.716;2023-06-14T06:15:35;23.10;90.80
21387;DHT22;10854;45.922;6.716;2023-06-14T06:18:04;23.30;90.20
21387;DHT22;10854;45.922;6.716;2023-06-14T06:20:33;23.50;88.50
21387;DHT22;10854;45.922;6.716;2023-06-14T06:23:02;23.40;86.70
21387;DHT22;10854;45.922;6.716;2023-06-14T06:25:31;23.20;86.20
21387;DHT22;10854;45.922;6.716;2023-06-14T06:28:00;23.10;86.40
21387;DHT22;10854;45.922;6.716;2023-06-14T06:30:28;23.00;85.40
21387;DHT22;10854;45.922;6.716;2023-06-14T06:32:58;22.90;85.80
21387;DHT22;10854;45.922;6.716;2023-06-14T06:35:26;22.90;85.80
21387;DHT22;10854;45.922;6.716;2023-06-14T06:37:55;22.80;85.80
21387;DHT22;10854;45.922;6.716;2023-06-14T06:40:23;22.80;84.20
21387;DHT22;10854;45.922;6.716;2023-06-14T06:42:52;22.70;83.40
21387;DHT22;10854;45.922;6.716;2023-06-14T06:45:21;22.80;83.20
21387;DHT22;10854;45.922;6.716;2023-06-14T06:47:52;22.80;82.90
21387;DHT22;10854;45.922;6.716;2023-06-14T06:50:20;23.00;81.50
21387;DHT22;10854;45.922;6.716;2023-06-14T06:52:51;23.10;81.40
21387;DHT22;10854;45.922;6.716;2023-06-14T06:55:20;23.20;80.50
21387;DHT22;10854;45.922;6.716;2023-06-14T06:57:49;23.40;80.00
21387;DHT22;10854;45.922;6.716;2023-06-14T07:00:18;23.70;79.40
21387;DHT22;10854;45.922;6.716;2023-06-14T07:02:47;23.90;78.20
21387;DHT22;10854;45.922;6.716;2023-06-14T07:05:16;24.10;77.50
21387;DHT22;10854;45.922;6.716;2023-06-14T07:07:44;24.30;77.10
21387;DHT22;10854;45.922;6.716;2023-06-14T07:10:13;24.40;76.50
21387;DHT22;10854;45.922;6.716;2023-06-14T07:12:42;24.50;75.60
21387;DHT22;10854;45.922;6.716;2023-06-14T07:15:11;24.60;74.70
21387;DHT22;10854;45.922;6.716;2023-06-14T07:17:40;24.80;74.50
21387;DHT22;10854;45.922;6.716;2023-06-14T07:20:09;25.00;74.30
21387;DHT22;10854;45.922;6.716;2023-06-14T07:22:42;25.10;73.80
21387;DHT22;10854;45.922;6.716;2023-06-14T07:25:11;25.20;72.60
21387;DHT22;10854;45.922;6.716;2023-06-14T07:27:45;25.20;70.80
21387;DHT22;10854;45.922;6.716;2023-06-14T07:30:14;25.20;70.20
21387;DHT22;10854;45.922;6.716;2023-06-14T07:32:43;25.30;69.80
21387;DHT22;10854;45.922;6.716;2023-06-14T07:35:11;25.30;69.80
21387;DHT22;10854;45.922;6.716;2023-06-14T07:37:40;25.50;69.30
21387;DHT22;10854;45.922;6.716;2023-06-14T07:40:12;25.70;68.90
21387;DHT22;10854;45.922;6.716;2023-06-14T07:42:42;25.80;68.70
21387;DHT22;10854;45.922;6.716;2023-06-14T07:45:13;26.00;67.60
21387;DHT22;10854;45.922;6.716;2023-06-14T07:47:42;26.00;67.30
21387;DHT22;10854;45.922;6.716;2023-06-14T07:50:12;26.20;67.50
21387;DHT22;10854;45.922;6.716;2023-06-14T07:52:41;26.30;66.40
21387;DHT22;10854;45.922;6.716;2023-06-14T07:55:10;26.40;66.60
21387;DHT22;10854;45.922;6.716;2023-06-14T07:57:38;26.80;66.70
21387;DHT22;10854;45.922;6.716;2023-06-14T08:00:07;27.10;64.90
21387;DHT22;10854;45.922;6.716;2023-06-14T08:02:36;27.20;62.80
21387;DHT22;10854;45.922;6.716;2023-06-14T08:05:05;27.20;62.70
21387;DHT22;10854;45.922;6.716;2023-06-14T08:07:33;27.50;62.80
21387;DHT22;10854;45.922;6.716;2023-06-14T08:10:02;27.80;63.10
21387;DHT22;10854;45.922;6.716;2023-06-14T08:12:32;28.30;62.20
21387;DHT22;10854;45.922;6.716;2023-06-14T08:15:01;28.60;59.70
21387;DHT22;10854;45.922;6.716;2023-06-14T08:17:40;28.60;59.90
21387;DHT22;10854;45.922;6.716;2023-06-14T08:20:10;28.70;59.70
21387;DHT22;10854;45.922;6.716;2023-06-14T08:22:39;28.60;59.60
21387;DHT22;10854;45.922;6.716;2023-06-14T08:25:10;28.60;59.40
21387;DHT22;10854;45.922;6.716;2023-06-14T08:27:40;28.40;59.60
21387;DHT22;10854;45.922;6.716;2023-06-14T08:30:09;28.30;59.00
21387;DHT22;10854;45.922;6.716;2023-06-14T08:32:38;28.30;59.50
21387;DHT22;10854;45.922;6.716;2023-06-14T08:35:06;28.30;59.50
21387;DHT22;10854;45.922;6.716;2023-06-14T08:37:39;28.20;59.00
21387;DHT22;10854;45.922;6.716;2023-06-14T08:40:20;28.10;59.00
21387;DHT22;10854;45.922;6.716;2023-06-14T08:42:54;28.10;59.40
21387;DHT22;10854;45.922;6.716;2023-06-14T08:45:24;28.10;59.90
21387;DHT22;10854;45.922;6.716;2023-06-14T08:47:56;28.20;60.00
21387;DHT22;10854;45.922;6.716;2023-06-14T08:50:28;28.40;60.10
21387;DHT22;10854;45.922;6.716;2023-06-14T08:53:01;28.70;59.70
21387;DHT22;10854;45.922;6.716;2023-06-14T08:55:31;28.90;59.00
21387;DHT22;10854;45.922;6.716;2023-06-14T08:58:02;29.00;58.10
21387;DHT22;10854;45.922;6.716;2023-06-14T09:00:31;28.80;57.20
21387;DHT22;10854;45.922;6.716;2023-06-14T09:03:01;28.80;57.50
21387;DHT22;10854;45.922;6.716;2023-06-14T09:05:31;28.80;57.40
21387;DHT22;10854;45.922;6.716;2023-06-14T09:07:59;28.80;57.70
21387;DHT22;10854;45.922;6.716;2023-06-14T09:10:31;28.80;57.30
21387;DHT22;10854;45.922;6.716;2023-06-14T09:13:06;28.90;57.60
21387;DHT22;10854;45.922;6.716;2023-06-14T09:15:35;29.20;57.40
21387;DHT22;10854;45.922;6.716;2023-06-14T09:18:04;29.40;56.20
21387;DHT22;10854;45.922;6.716;2023-06-14T09:20:33;29.40;55.80
21387;DHT22;10854;45.922;6.716;2023-06-14T09:23:03;29.40;55.70
21387;DHT22;10854;45.922;6.716;2023-06-14T09:25:45;29.50;55.00
21387;DHT22;10854;45.922;6.716;2023-06-14T09:28:14;29.40;55.20
21387;DHT22;10854;45.922;6.716;2023-06-14T09:30:43;29.40;55.20
21387;DHT22;10854;45.922;6.716;2023-06-14T09:33:17;29.40;53.90
21387;DHT22;10854;45.922;6.716;2023-06-14T09:35:52;29.40;54.60
21387;DHT22;10854;45.922;6.716;2023-06-14T09:38:20;29.40;54.10
21387;DHT22;10854;45.922;6.716;2023-06-14T09:40:50;29.20;54.10
21387;DHT22;10854;45.922;6.716;2023-06-14T09:43:19;29.20;54.40
21387;DHT22;10854;45.922;6.716;2023-06-14T09:45:50;29.40;54.30
21387;DHT22;10854;45.922;6.716;2023-06-14T09:48:20;29.70;53.30
21387;DHT22;10854;45.922;6.716;2023-06-14T09:50:50;29.70;51.80
21387;DHT22;10854;45.922;6.716;2023-06-14T09:53:21;29.70;51.20
21387;DHT22;10854;45.922;6.716;2023-06-14T09:55:55;29.60;50.70
21387;DHT22;10854;45.922;6.716;2023-06-14T09:58:28;29.40;50.60
21387;DHT22;10854;45.922;6.716;2023-06-14T10:00:57;29.20;51.00
21387;DHT22;10854;45.922;6.716;2023-06-14T10:03:31;29.10;52.20
21387;DHT22;10854;45.922;6.716;2023-06-14T10:06:09;29.10;51.60
21387;DHT22;10854;45.922;6.716;2023-06-14T10:08:38;29.20;52.20
21387;DHT22;10854;45.922;6.716;2023-06-14T10:11:08;29.30;51.80
21387;DHT22;10854;45.922;6.716;2023-06-14T10:13:37;29.50;51.10
21387;DHT22;10854;45.922;6.716;2023-06-14T10:16:28;29.70;50.20
21387;DHT22;10854;45.922;6.716;2023-06-14T10:19:17;29.90;49.40
21387;DHT22;10854;45.922;6.716;2023-06-14T10:24:32;29.90;50.00
21387;DHT22;10854;45.922;6.716;2023-06-14T10:27:14;30.20;50.10
21387;DHT22;10854;45.922;6.716;2023-06-14T10:32:29;30.40;49.40
21387;DHT22;10854;45.922;6.716;2023-06-14T10:35:06;30.30;49.50
21387;DHT22;10854;45.922;6.716;2023-06-14T10:37:35;30.20;49.90
21387;DHT22;10854;45.922;6.716;2023-06-14T10:40:05;30.30;49.20
21387;DHT22;10854;45.922;6.716;2023-06-14T10:42:36;30.10;48.40
21387;DHT22;10854;45.922;6.716;2023-06-14T10:45:06;30.10;48.60
21387;DHT22;10854;45.922;6.716;2023-06-14T10:47:35;30.30;49.00
21387;DHT22;10854;45.922;6.716;2023-06-14T10:50:07;30.50;49.10
21387;DHT22;10854;45.922;6.716;2023-06-14T10:52:40;30.60;48.80
21387;DHT22;10854;45.922;6.716;2023-06-14T10:55:17;30.60;48.30
21387;DHT22;10854;45.922;6.716;2023-06-14T10:57:51;30.50;48.80
21387;DHT22;10854;45.922;6.716;2023-06-14T11:00:25;30.90;49.30
21387;DHT22;10854;45.922;6.716;2023-06-14T11:06:13;30.90;47.10
21387;DHT22;10854;45.922;6.716;2023-06-14T11:09:27;30.90;47.70
21387;DHT22;10854;45.922;6.716;2023-06-14T11:12:02;31.00;48.00
21387;DHT22;10854;45.922;6.716;2023-06-14T11:14:31;31.00;48.10
21387;DHT22;10854;45.922;6.716;2023-06-14T11:17:00;31.10;47.70
21387;DHT22;10854;45.922;6.716;2023-06-14T11:19:28;31.20;47.00
21387;DHT22;10854;45.922;6.716;2023-06-14T11:21:57;31.30;46.90
21387;DHT22;10854;45.922;6.716;2023-06-14T11:24:27;31.50;46.90
21387;DHT22;10854;45.922;6.716;2023-06-14T11:26:55;31.90;46.70
21387;DHT22;10854;45.922;6.716;2023-06-14T11:29:25;32.10;46.00
21387;DHT22;10854;45.922;6.716;2023-06-14T11:31:53;32.30;46.10
21387;DHT22;10854;45.922;6.716;2023-06-14T11:34:23;32.50;46.00
21387;DHT22;10854;45.922;6.716;2023-06-14T11:36:52;32.60;45.60
21387;DHT22;10854;45.922;6.716;2023-06-14T11:39:24;32.70;44.80
21387;DHT22;10854;45.922;6.716;2023-06-14T11:41:53;32.70;44.90
21387;DHT22;10854;45.922;6.716;2023-06-14T11:44:24;32.50;44.60
21387;DHT22;10854;45.922;6.716;2023-06-14T11:46:53;32.20;44.90
21387;DHT22;10854;45.922;6.716;2023-06-14T11:49:21;31.70;44.70
21387;DHT22;10854;45.922;6.716;2023-06-14T11:51:50;31.10;45.60
21387;DHT22;10854;45.922;6.716;2023-06-14T11:54:18;30.60;46.40
21387;DHT22;10854;45.922;6.716;2023-06-14T11:56:47;30.30;47.30
21387;DHT22;10854;45.922;6.716;2023-06-14T11:59:16;30.00;47.80
21387;DHT22;10854;45.922;6.716;2023-06-14T12:01:44;30.00;48.70
21387;DHT22;10854;45.922;6.716;2023-06-14T12:04:13;29.90;49.00
21387;DHT22;10854;45.922;6.716;2023-06-14T12:06:42;29.90;49.20
21387;DHT22;10854;45.922;6.716;2023-06-14T12:09:12;30.30;50.00
21387;DHT22;10854;45.922;6.716;2023-06-14T12:11:45;30.70;48.90
21387;DHT22;10854;45.922;6.716;2023-06-14T12:14:13;30.70;48.30
21387;DHT22;10854;45.922;6.716;2023-06-14T12:16:42;30.70;48.30
21387;DHT22;10854;45.922;6.716;2023-06-14T12:19:16;30.70;48.20
21387;DHT22;10854;45.922;6.716;2023-06-14T12:21:46;30.70;48.40
21387;DHT22;10854;45.922;6.716;2023-06-14T12:24:20;30.90;48.50
21387;DHT22;10854;45.922;6.716;2023-06-14T12:26:48;31.40;48.00
21387;DHT22;10854;45.922;6.716;2023-06-14T12:29:20;31.90;47.20
21387;DHT22;10854;45.922;6.716;2023-06-14T12:31:49;32.40;46.00
21387;DHT22;10854;45.922;6.716;2023-06-14T12:34:18;32.90;45.40
21387;DHT22;10854;45.922;6.716;2023-06-14T12:36:46;33.20;45.00
21387;DHT22;10854;45.922;6.716;2023-06-14T12:39:15;33.40;44.70
21387;DHT22;10854;45.922;6.716;2023-06-14T12:41:43;33.60;44.70
21387;DHT22;10854;45.922;6.716;2023-06-14T12:44:12;33.70;44.30
21387;DHT22;10854;45.922;6.716;2023-06-14T12:46:44;33.80;43.50
21387;DHT22;10854;45.922;6.716;2023-06-14T12:49:13;33.90;43.40
21387;DHT22;10854;45.922;6.716;2023-06-14T12:51:41;34.20;43.60
21387;DHT22;10854;45.922;6.716;2023-06-14T12:54:10;34.50;43.00
21387;DHT22;10854;45.922;6.716;2023-06-14T12:56:38;34.80;42.20
21387;DHT22;10854;45.922;6.716;2023-06-14T12:59:07;34.80;41.10
21387;DHT22;10854;45.922;6.716;2023-06-14T13:01:37;34.70;41.10
21387;DHT22;10854;45.922;6.716;2023-06-14T13:04:05;34.60;41.40
21387;DHT22;10854;45.922;6.716;2023-06-14T13:06:34;34.60;41.20
21387;DHT22;10854;45.922;6.716;2023-06-14T13:09:03;34.70;40.80
21387;DHT22;10854;45.922;6.716;2023-06-14T13:11:31;34.60;40.30
21387;DHT22;10854;45.922;6.716;2023-06-14T13:14:01;34.20;40.00
21387;DHT22;10854;45.922;6.716;2023-06-14T13:16:35;33.80;40.50
21387;DHT22;10854;45.922;6.716;2023-06-14T13:19:03;33.60;40.50
21387;DHT22;10854;45.922;6.716;2023-06-14T13:21:32;33.60;40.30
21387;DHT22;10854;45.922;6.716;2023-06-14T13:24:00;33.90;40.00
21387;DHT22;10854;45.922;6.716;2023-06-14T13:26:29;34.00;39.50
21387;DHT22;10854;45.922;6.716;2023-06-14T13:28:58;34.10;39.20
21387;DHT22;10854;45.922;6.716;2023-06-14T13:31:26;34.20;39.20
21387;DHT22;10854;45.922;6.716;2023-06-14T13:33:55;34.40;38.80
21387;DHT22;10854;45.922;6.716;2023-06-14T13:36:24;34.50;37.80
21387;DHT22;10854;45.922;6.716;2023-06-14T13:38:52;34.30;36.80
21387;DHT22;10854;45.922;6.716;2023-06-14T13:41:22;34.00;37.00
21387;DHT22;10854;45.922;6.716;2023-06-14T13:43:53;33.90;36.90
21387;DHT22;10854;45.922;6.716;2023-06-14T13:46:22;33.80;36.80
21387;DHT22;10854;45.922;6.716;2023-06-14T13:48:50;33.70;36.70
21387;DHT22;10854;45.922;6.716;2023-06-14T13:51:19;33.70;36.80
21387;DHT22;10854;45.922;6.716;2023-06-14T13:53:49;33.70;37.00
21387;DHT22;10854;45.922;6.716;2023-06-14T13:56:19;34.20;37.40
21387;DHT22;10854;45.922;6.716;2023-06-14T13:58:47;34.60;36.80
21387;DHT22;10854;45.922;6.716;2023-06-14T14:01:16;34.80;35.70
21387;DHT22;10854;45.922;6.716;2023-06-14T14:03:47;34.70;35.90
21387;DHT22;10854;45.922;6.716;2023-06-14T14:06:17;34.30;36.90
21387;DHT22;10854;45.922;6.716;2023-06-14T14:08:46;34.00;37.70
21387;DHT22;10854;45.922;6.716;2023-06-14T14:11:14;33.60;37.50
21387;DHT22;10854;45.922;6.716;2023-06-14T14:13:44;33.20;37.40
21387;DHT22;10854;45.922;6.716;2023-06-14T14:16:13;32.60;37.60
21387;DHT22;10854;45.922;6.716;2023-06-14T14:18:43;32.10;37.70
21387;DHT22;10854;45.922;6.716;2023-06-14T14:21:11;31.70;37.80
21387;DHT22;10854;45.922;6.716;2023-06-14T14:23:39;31.30;38.00
21387;DHT22;10854;45.922;6.716;2023-06-14T14:26:10;30.90;38.40
21387;DHT22;10854;45.922;6.716;2023-06-14T14:28:38;30.50;38.70
21387;DHT22;10854;45.922;6.716;2023-06-14T14:31:06;30.20;38.50
21387;DHT22;10854;45.922;6.716;2023-06-14T14:33:35;30.00;38.80
21387;DHT22;10854;45.922;6.716;2023-06-14T14:36:05;29.90;39.00
21387;DHT22;10854;45.922;6.716;2023-06-14T14:38:35;29.80;38.50
21387;DHT22;10854;45.922;6.716;2023-06-14T14:41:03;29.80;38.20
21387;DHT22;10854;45.922;6.716;2023-06-14T14:43:32;29.90;38.50
21387;DHT22;10854;45.922;6.716;2023-06-14T14:46:00;30.10;38.40
21387;DHT22;10854;45.922;6.716;2023-06-14T14:48:29;30.20;37.60
21387;DHT22;10854;45.922;6.716;2023-06-14T14:50:57;30.20;37.70
21387;DHT22;10854;45.922;6.716;2023-06-14T14:53:26;30.40;38.00
21387;DHT22;10854;45.922;6.716;2023-06-14T14:55:54;31.00;37.70
21387;DHT22;10854;45.922;6.716;2023-06-14T14:58:23;31.30;36.80
21387;DHT22;10854;45.922;6.716;2023-06-14T15:00:52;31.40;36.70
21387;DHT22;10854;45.922;6.716;2023-06-14T15:03:21;31.30;36.00
21387;DHT22;10854;45.922;6.716;2023-06-14T15:05:50;31.20;35.90
21387;DHT22;10854;45.922;6.716;2023-06-14T15:08:20;31.10;36.00
21387;DHT22;10854;45.922;6.716;2023-06-14T15:10:48;31.30;36.30
21387;DHT22;10854;45.922;6.716;2023-06-14T15:13:19;31.60;35.80
21387;DHT22;10854;45.922;6.716;2023-06-14T15:15:48;31.80;35.50
21387;DHT22;10854;45.922;6.716;2023-06-14T15:18:18;32.20;35.30
21387;DHT22;10854;45.922;6.716;2023-06-14T15:20:49;32.60;34.10
21387;DHT22;10854;45.922;6.716;2023-06-14T15:23:18;32.60;33.30
21387;DHT22;10854;45.922;6.716;2023-06-14T15:25:48;32.80;34.00
21387;DHT22;10854;45.922;6.716;2023-06-14T15:28:16;32.60;34.50
21387;DHT22;10854;45.922;6.716;2023-06-14T15:30:44;32.10;33.80
21387;DHT22;10854;45.922;6.716;2023-06-14T15:33:13;31.70;34.00
21387;DHT22;10854;45.922;6.716;2023-06-14T15:35:41;31.30;33.80
21387;DHT22;10854;45.922;6.716;2023-06-14T15:38:10;31.10;33.70
21387;DHT22;10854;45.922;6.716;2023-06-14T15:40:38;30.90;33.60
21387;DHT22;10854;45.922;6.716;2023-06-14T15:43:07;30.70;33.80
21387;DHT22;10854;45.922;6.716;2023-06-14T15:45:36;30.40;33.70
21387;DHT22;10854;45.922;6.716;2023-06-14T15:48:06;30.40;33.70
21387;DHT22;10854;45.922;6.716;2023-06-14T15:50:35;30.60;33.40
21387;DHT22;10854;45.922;6.716;2023-06-14T15:53:04;30.90;32.70
21387;DHT22;10854;45.922;6.716;2023-06-14T15:55:32;31.30;32.10
21387;DHT22;10854;45.922;6.716;2023-06-14T15:58:01;31.90;31.40
21387;DHT22;10854;45.922;6.716;2023-06-14T16:00:29;32.30;30.40